sensor_id;sensor_type;location;lat;lon;timestamp;pressure;altitude;pressure_sealevel;temperature;humidity
53916;BME280;39827;49.652;18.770;2023-06-01T00:01:38;74313.84;;;-149.71;75.87
53916;BME280;39827;49.652;18.770;2023-06-01T00:04:04;74323.88;;;-149.71;76.68
53916;BME280;39827;49.652;18.770;2023-06-01T00:06:30;74358.06;;;-149.71;77.95
53916;BME280;39827;49.652;18.770;2023-06-01T00:08:57;74352.03;;;-149.71;77.99
53916;BME280;39827;49.652;18.770;2023-06-01T00:11:24;74364.06;;;-149.71;78.48
53916;BME280;39827;49.652;18.770;2023-06-01T00:13:51;74376.13;;;-149.71;78.42
53916;BME280;39827;49.652;18.770;2023-06-01T00:16:16;74394.22;;;-149.71;78.86
53916;BME280;39827;49.652;18.770;2023-06-01T00:18:43;74376.13;;;-149.71;79.08
53916;BME280;39827;49.652;18.770;2023-06-01T00:21:09;74376.13;;;-149.71;79.03
53916;BME280;39827;49.652;18.770;2023-06-01T00:23:34;74374.13;;;-149.71;79.38
53916;BME280;39827;49.652;18.770;2023-06-01T00:26:00;74366.09;;;-149.71;79.00
53916;BME280;39827;49.652;18.770;2023-06-01T00:28:26;74366.09;;;-149.71;79.18
53916;BME280;39827;49.652;18.770;2023-06-01T00:30:52;74372.13;;;-149.71;79.13
53916;BME280;39827;49.652;18.770;2023-06-01T00:33:21;74402.25;;;-149.71;79.84
53916;BME280;39827;49.652;18.770;2023-06-01T00:35:47;74396.22;;;-149.71;80.22
53916;BME280;39827;49.652;18.770;2023-06-01T00:38:12;74382.16;;;-149.71;80.18
53916;BME280;39827;49.652;18.770;2023-06-01T00:40:38;74384.16;;;-149.71;79.82
53916;BME280;39827;49.652;18.770;2023-06-01T00:43:03;74382.16;;;-149.71;79.74
53916;BME280;39827;49.652;18.770;2023-06-01T00:45:29;74388.19;;;-149.71;79.99
53916;BME280;39827;49.652;18.770;2023-06-01T00:47:55;74378.13;;;-149.71;79.67
53916;BME280;39827;49.652;18.770;2023-06-01T00:50:21;74384.16;;;-149.71;79.50
53916;BME280;39827;49.652;18.770;2023-06-01T00:52:49;74386.19;;;-149.71;79.56
53916;BME280;39827;49.652;18.770;2023-06-01T00:55:14;74404.25;;;-149.71;79.64
53916;BME280;39827;49.652;18.770;2023-06-01T00:57:40;74398.22;;;-149.71;79.47
53916;BME280;39827;49.652;18.770;2023-06-01T01:00:08;74392.19;;;-149.71;79.39
53916;BME280;39827;49.652;18.770;2023-06-01T01:02:41;74384.16;;;-149.71;79.83
53916;BME280;39827;49.652;18.770;2023-06-01T01:05:07;74386.19;;;-149.71;79.69
53916;BME280;39827;49.652;18.770;2023-06-01T01:10:22;74358.06;;;-149.71;78.52
53916;BME280;39827;49.652;18.770;2023-06-01T01:18:45;74378.13;;;-149.71;79.18
53916;BME280;39827;49.652;18.770;2023-06-01T01:21:09;74382.16;;;-149.71;79.94
53916;BME280;39827;49.652;18.770;2023-06-01T01:29:35;74416.31;;;-149.71;81.21
53916;BME280;39827;49.652;18.770;2023-06-01T01:32:03;74416.31;;;-149.71;81.05
53916;BME280;39827;49.652;18.770;2023-06-01T01:34:30;74420.34;;;-149.71;81.40
53916;BME280;39827;49.652;18.770;2023-06-01T01:36:56;74412.28;;;-149.71;81.16
53916;BME280;39827;49.652;18.770;2023-06-01T01:39:21;74410.28;;;-149.71;81.14
53916;BME280;39827;49.652;18.770;2023-06-01T01:41:46;74386.19;;;-149.71;80.32
53916;BME280;39827;49.652;18.770;2023-06-01T01:44:12;74394.22;;;-149.71;80.38
53916;BME280;39827;49.652;18.770;2023-06-01T01:49:13;74394.22;;;-149.71;81.25
53916;BME280;39827;49.652;18.770;2023-06-01T01:54:24;74386.19;;;-149.71;80.63
53916;BME280;39827;49.652;18.770;2023-06-01T01:56:53;74366.09;;;-149.71;79.89
53916;BME280;39827;49.652;18.770;2023-06-01T01:59:19;74380.16;;;-149.71;79.70
53916;BME280;39827;49.652;18.770;2023-06-01T02:01:46;74394.22;;;-149.71;79.71
53916;BME280;39827;49.652;18.770;2023-06-01T02:04:11;74416.31;;;-149.71;79.94
53916;BME280;39827;49.652;18.770;2023-06-01T02:06:36;74420.34;;;-149.71;80.29
53916;BME280;39827;49.652;18.770;2023-06-01T02:09:05;74422.34;;;-149.71;80.79
53916;BME280;39827;49.652;18.770;2023-06-01T02:11:34;74428.38;;;-149.71;81.90
53916;BME280;39827;49.652;18.770;2023-06-01T02:14:01;74416.31;;;-149.71;81.87
53916;BME280;39827;49.652;18.770;2023-06-01T02:16:26;74402.25;;;-149.71;81.17
53916;BME280;39827;49.652;18.770;2023-06-01T02:18:52;74406.28;;;-149.71;81.50
53916;BME280;39827;49.652;18.770;2023-06-01T02:21:18;74434.41;;;-149.71;81.21
53916;BME280;39827;49.652;18.770;2023-06-01T02:23:43;74420.34;;;-149.71;81.01
53916;BME280;39827;49.652;18.770;2023-06-01T02:26:09;74412.28;;;-149.71;82.03
53916;BME280;39827;49.652;18.770;2023-06-01T02:28:38;74414.31;;;-149.71;82.21
53916;BME280;39827;49.652;18.770;2023-06-01T02:31:05;74418.31;;;-149.71;82.37
53916;BME280;39827;49.652;18.770;2023-06-01T02:33:31;74416.31;;;-149.71;82.47
53916;BME280;39827;49.652;18.770;2023-06-01T02:35:56;74410.28;;;-149.71;82.17
53916;BME280;39827;49.652;18.770;2023-06-01T02:38:22;74412.28;;;-149.71;81.64
53916;BME280;39827;49.652;18.770;2023-06-01T02:40:47;74426.38;;;-149.71;82.24
53916;BME280;39827;49.652;18.770;2023-06-01T02:43:13;74410.28;;;-149.71;81.97
53916;BME280;39827;49.652;18.770;2023-06-01T02:45:38;74400.25;;;-149.71;81.72
53916;BME280;39827;49.652;18.770;2023-06-01T02:48:04;74392.19;;;-149.71;81.75
53916;BME280;39827;49.652;18.770;2023-06-01T02:50:29;74400.25;;;-149.71;81.54
53916;BME280;39827;49.652;18.770;2023-06-01T02:52:55;74390.19;;;-149.71;81.81
53916;BME280;39827;49.652;18.770;2023-06-01T02:55:20;74392.19;;;-149.71;82.02
53916;BME280;39827;49.652;18.770;2023-06-01T02:57:46;74398.22;;;-149.71;81.80
53916;BME280;39827;49.652;18.770;2023-06-01T03:00:11;74414.31;;;-149.71;82.20
53916;BME280;39827;49.652;18.770;2023-06-01T03:02:44;74404.25;;;-149.71;81.63
53916;BME280;39827;49.652;18.770;2023-06-01T03:05:11;74396.22;;;-149.71;82.21
53916;BME280;39827;49.652;18.770;2023-06-01T03:07:49;74384.16;;;-149.71;82.04
53916;BME280;39827;49.652;18.770;2023-06-01T03:10:15;74398.22;;;-149.71;82.26
53916;BME280;39827;49.652;18.770;2023-06-01T03:12:40;74394.22;;;-149.71;82.17
53916;BME280;39827;49.652;18.770;2023-06-01T03:15:06;74380.16;;;-149.71;82.06
53916;BME280;39827;49.652;18.770;2023-06-01T03:17:32;74374.13;;;-149.71;81.81
53916;BME280;39827;49.652;18.770;2023-06-01T03:19:58;74362.06;;;-149.71;81.30
53916;BME280;39827;49.652;18.770;2023-06-01T03:22:24;74362.06;;;-149.71;81.19
53916;BME280;39827;49.652;18.770;2023-06-01T03:24:49;74366.09;;;-149.71;81.39
53916;BME280;39827;49.652;18.770;2023-06-01T03:27:18;74358.06;;;-149.71;81.03
53916;BME280;39827;49.652;18.770;2023-06-01T03:29:45;74364.06;;;-149.71;81.25
53916;BME280;39827;49.652;18.770;2023-06-01T03:32:10;74364.06;;;-149.71;81.50
53916;BME280;39827;49.652;18.770;2023-06-01T03:34:36;74343.97;;;-149.71;81.61
53916;BME280;39827;49.652;18.770;2023-06-01T03:37:05;74348.00;;;-149.71;81.88
53916;BME280;39827;49.652;18.770;2023-06-01T03:39:31;74339.97;;;-149.71;81.89
53916;BME280;39827;49.652;18.770;2023-06-01T03:42:00;74337.97;;;-149.71;81.87
53916;BME280;39827;49.652;18.770;2023-06-01T03:44:26;74343.97;;;-149.71;80.79
53916;BME280;39827;49.652;18.770;2023-06-01T03:46:52;74339.97;;;-149.71;80.55
53916;BME280;39827;49.652;18.770;2023-06-01T03:49:17;74339.97;;;-149.71;81.05
53916;BME280;39827;49.652;18.770;2023-06-01T03:51:43;74327.91;;;-149.71;80.76
53916;BME280;39827;49.652;18.770;2023-06-01T03:54:09;74299.78;;;-149.71;80.00
53916;BME280;39827;49.652;18.770;2023-06-01T03:56:34;74295.75;;;-149.71;79.80
53916;BME280;39827;49.652;18.770;2023-06-01T03:59:01;74305.81;;;-149.71;80.47
53916;BME280;39827;49.652;18.770;2023-06-01T04:01:27;74295.75;;;-149.71;80.54
53916;BME280;39827;49.652;18.770;2023-06-01T04:03:56;74287.72;;;-149.71;80.24
53916;BME280;39827;49.652;18.770;2023-06-01T04:06:22;74289.75;;;-149.71;80.06
53916;BME280;39827;49.652;18.770;2023-06-01T04:08:49;74283.72;;;-149.71;79.98
53916;BME280;39827;49.652;18.770;2023-06-01T04:11:20;74263.63;;;-149.71;79.45
53916;BME280;39827;49.652;18.770;2023-06-01T04:13:47;74255.59;;;-149.71;79.36
53916;BME280;39827;49.652;18.770;2023-06-01T04:16:13;74247.53;;;-149.71;78.13
53916;BME280;39827;49.652;18.770;2023-06-01T04:18:39;74239.50;;;-149.71;78.04
53916;BME280;39827;49.652;18.770;2023-06-01T04:21:04;74225.44;;;-149.71;77.71
53916;BME280;39827;49.652;18.770;2023-06-01T04:23:32;74215.41;;;-149.71;77.25
53916;BME280;39827;49.652;18.770;2023-06-01T04:25:57;74209.38;;;-149.71;76.87
53916;BME280;39827;49.652;18.770;2023-06-01T04:28:27;74201.34;;;-149.71;76.51
53916;BME280;39827;49.652;18.770;2023-06-01T04:30:53;74207.38;;;-149.71;77.22
53916;BME280;39827;49.652;18.770;2023-06-01T04:33:19;74201.34;;;-149.71;77.59
53916;BME280;39827;49.652;18.770;2023-06-01T04:35:45;74189.28;;;-149.71;76.84
53916;BME280;39827;49.652;18.770;2023-06-01T04:38:10;74163.16;;;-149.71;75.89
53916;BME280;39827;49.652;18.770;2023-06-01T04:40:37;74139.06;;;-149.71;75.31
53916;BME280;39827;49.652;18.770;2023-06-01T04:43:02;74122.97;;;-149.71;74.88
53916;BME280;39827;49.652;18.770;2023-06-01T04:45:29;74102.88;;;-149.71;74.26
53916;BME280;39827;49.652;18.770;2023-06-01T04:47:59;74096.88;;;-149.71;74.40
53916;BME280;39827;49.652;18.770;2023-06-01T04:50:25;74080.78;;;-149.71;75.48
53916;BME280;39827;49.652;18.770;2023-06-01T04:52:54;74046.63;;;-149.71;73.58
53916;BME280;39827;49.652;18.770;2023-06-01T04:55:20;74004.44;;;-149.71;71.86
53916;BME280;39827;49.652;18.770;2023-06-01T04:57:46;73964.28;;;-149.71;69.90
53916;BME280;39827;49.652;18.770;2023-06-01T05:00:15;73936.13;;;-149.71;68.68
53916;BME280;39827;49.652;18.770;2023-06-01T05:02:43;73899.97;;;-149.71;67.21
53916;BME280;39827;49.652;18.770;2023-06-01T05:05:10;73869.84;;;-149.71;65.26
53916;BME280;39827;49.652;18.770;2023-06-01T05:07:36;73815.59;;;-149.71;63.09
53916;BME280;39827;49.652;18.770;2023-06-01T05:10:03;73785.47;;;-149.71;61.37
53916;BME280;39827;49.652;18.770;2023-06-01T05:12:34;73749.31;;;-149.71;60.51
53916;BME280;39827;49.652;18.770;2023-06-01T05:15:01;73721.19;;;-149.71;60.84
53916;BME280;39827;49.652;18.770;2023-06-01T05:17:27;73664.94;;;-149.71;59.28
53916;BME280;39827;49.652;18.770;2023-06-01T05:19:52;73610.69;;;-149.71;57.85
53916;BME280;39827;49.652;18.770;2023-06-01T05:22:18;73584.59;;;-149.71;57.36
53916;BME280;39827;49.652;18.770;2023-06-01T05:24:43;73552.44;;;-149.71;58.27
53916;BME280;39827;49.652;18.770;2023-06-01T05:27:09;73564.50;;;-149.71;58.88
53916;BME280;39827;49.652;18.770;2023-06-01T05:29:34;73544.41;;;-149.71;58.25
53916;BME280;39827;49.652;18.770;2023-06-01T05:32:00;73512.28;;;-149.71;57.46
53916;BME280;39827;49.652;18.770;2023-06-01T05:34:25;73476.13;;;-149.71;55.31
53916;BME280;39827;49.652;18.770;2023-06-01T05:36:51;73470.09;;;-149.71;56.01
53916;BME280;39827;49.652;18.770;2023-06-01T05:39:16;73448.00;;;-149.71;54.14
53916;BME280;39827;49.652;18.770;2023-06-01T05:41:42;73413.84;;;-149.71;53.90
53916;BME280;39827;49.652;18.770;2023-06-01T05:44:07;73367.63;;;-149.71;53.42
53916;BME280;39827;49.652;18.770;2023-06-01T05:46:33;73343.53;;;-149.71;52.65
53916;BME280;39827;49.652;18.770;2023-06-01T05:48:59;73327.47;;;-149.71;50.73
53916;BME280;39827;49.652;18.770;2023-06-01T05:51:24;73271.22;;;-149.71;49.70
53916;BME280;39827;49.652;18.770;2023-06-01T05:53:50;73233.06;;;-149.71;47.65
53916;BME280;39827;49.652;18.770;2023-06-01T05:56:15;73202.94;;;-149.71;45.85
53916;BME280;39827;49.652;18.770;2023-06-01T05:58:42;73164.78;;;-149.71;45.34
53916;BME280;39827;49.652;18.770;2023-06-01T06:01:08;73124.59;;;-149.71;44.52
53916;BME280;39827;49.652;18.770;2023-06-01T06:03:34;73088.44;;;-149.71;43.96
53916;BME280;39827;49.652;18.770;2023-06-01T06:06:00;73054.28;;;-149.71;43.40
53916;BME280;39827;49.652;18.770;2023-06-01T06:08:26;73050.28;;;-149.71;44.62
53916;BME280;39827;49.652;18.770;2023-06-01T06:10:52;73010.13;;;-149.71;42.93
53916;BME280;39827;49.652;18.770;2023-06-01T06:13:18;73024.16;;;-149.71;43.02
53916;BME280;39827;49.652;18.770;2023-06-01T06:15:44;72988.03;;;-149.71;41.66
53916;BME280;39827;49.652;18.770;2023-06-01T06:18:10;72973.97;;;-149.71;41.21
53916;BME280;39827;49.652;18.770;2023-06-01T06:20:35;72986.00;;;-149.71;41.37
53916;BME280;39827;49.652;18.770;2023-06-01T06:23:00;72929.78;;;-149.71;41.54
53916;BME280;39827;49.652;18.770;2023-06-01T06:25:26;72899.66;;;-149.71;41.05
53916;BME280;39827;49.652;18.770;2023-06-01T06:27:51;72865.50;;;-149.71;40.58
53916;BME280;39827;49.652;18.770;2023-06-01T06:30:17;72831.34;;;-149.71;40.96
53916;BME280;39827;49.652;18.770;2023-06-01T06:32:42;72797.22;;;-149.71;40.68
53916;BME280;39827;49.652;18.770;2023-06-01T06:35:08;72745.00;;;-149.71;38.89
53916;BME280;39827;49.652;18.770;2023-06-01T06:37:38;72714.88;;;-149.71;38.80
53916;BME280;39827;49.652;18.770;2023-06-01T06:40:03;72694.78;;;-149.71;38.87
53916;BME280;39827;49.652;18.770;2023-06-01T06:42:30;72696.78;;;-149.71;37.19
53916;BME280;39827;49.652;18.770;2023-06-01T06:44:55;72698.81;;;-149.71;38.22
53916;BME280;39827;49.652;18.770;2023-06-01T06:47:22;72684.75;;;-149.71;37.49
53916;BME280;39827;49.652;18.770;2023-06-01T06:49:48;72664.66;;;-149.71;37.52
53916;BME280;39827;49.652;18.770;2023-06-01T06:52:13;72616.47;;;-149.71;37.68
53916;BME280;39827;49.652;18.770;2023-06-01T06:54:39;72620.47;;;-149.71;36.96
53916;BME280;39827;49.652;18.770;2023-06-01T06:57:06;72592.38;;;-149.71;36.58
53916;BME280;39827;49.652;18.770;2023-06-01T06:59:31;72580.31;;;-149.71;36.51
53916;BME280;39827;49.652;18.770;2023-06-01T07:01:56;72544.16;;;-149.71;36.13
53916;BME280;39827;49.652;18.770;2023-06-01T07:04:22;72522.06;;;-149.71;35.56
53916;BME280;39827;49.652;18.770;2023-06-01T07:06:47;72518.06;;;-149.71;34.79
53916;BME280;39827;49.652;18.770;2023-06-01T07:09:13;72481.91;;;-149.71;34.44
53916;BME280;39827;49.652;18.770;2023-06-01T07:11:41;72487.94;;;-149.71;34.05
53916;BME280;39827;49.652;18.770;2023-06-01T07:14:09;72457.81;;;-149.71;32.58
53916;BME280;39827;49.652;18.770;2023-06-01T07:16:34;72449.78;;;-149.71;32.30
53916;BME280;39827;49.652;18.770;2023-06-01T07:19:00;72395.56;;;-149.71;33.20
53916;BME280;39827;49.652;18.770;2023-06-01T07:21:25;72383.50;;;-149.71;32.52
53916;BME280;39827;49.652;18.770;2023-06-01T07:23:51;72383.50;;;-149.71;32.17
53916;BME280;39827;49.652;18.770;2023-06-01T07:26:16;72357.41;;;-149.71;31.63
53916;BME280;39827;49.652;18.770;2023-06-01T07:28:42;72341.34;;;-149.71;31.80
53916;BME280;39827;49.652;18.770;2023-06-01T07:31:07;72303.19;;;-149.71;31.39
53916;BME280;39827;49.652;18.770;2023-06-01T07:33:34;72303.19;;;-149.71;31.97
53916;BME280;39827;49.652;18.770;2023-06-01T07:36:01;72287.13;;;-149.71;31.52
53916;BME280;39827;49.652;18.770;2023-06-01T07:38:27;72218.84;;;-149.71;31.63
53916;BME280;39827;49.652;18.770;2023-06-01T07:40:52;72210.81;;;-149.71;30.39
53916;BME280;39827;49.652;18.770;2023-06-01T07:43:17;72192.72;;;-149.71;31.78
53916;BME280;39827;49.652;18.770;2023-06-01T07:45:43;72190.72;;;-149.71;31.19
53916;BME280;39827;49.652;18.770;2023-06-01T07:48:08;72180.69;;;-149.71;30.23
53916;BME280;39827;49.652;18.770;2023-06-01T07:50:33;72146.53;;;-149.71;30.34
53916;BME280;39827;49.652;18.770;2023-06-01T07:52:59;72118.44;;;-149.71;28.49
53916;BME280;39827;49.652;18.770;2023-06-01T07:55:25;72120.44;;;-149.71;27.97
53916;BME280;39827;49.652;18.770;2023-06-01T07:57:52;72118.44;;;-149.71;28.26
53916;BME280;39827;49.652;18.770;2023-06-01T08:00:18;72118.44;;;-149.71;28.18
53916;BME280;39827;49.652;18.770;2023-06-01T08:02:44;72158.59;;;-149.71;28.30
53916;BME280;39827;49.652;18.770;2023-06-01T08:05:10;72154.56;;;-149.71;29.32
53916;BME280;39827;49.652;18.770;2023-06-01T08:07:37;72152.56;;;-149.71;28.11
53916;BME280;39827;49.652;18.770;2023-06-01T08:10:04;72192.72;;;-149.71;28.82
53916;BME280;39827;49.652;18.770;2023-06-01T08:12:31;72174.66;;;-149.71;29.10
53916;BME280;39827;49.652;18.770;2023-06-01T08:14:57;72158.59;;;-149.71;29.17
53916;BME280;39827;49.652;18.770;2023-06-01T08:17:24;72108.41;;;-149.71;28.69
53916;BME280;39827;49.652;18.770;2023-06-01T08:19:49;72042.13;;;-149.71;28.37
53916;BME280;39827;49.652;18.770;2023-06-01T08:22:16;72014.00;;;-149.71;26.23
53916;BME280;39827;49.652;18.770;2023-06-01T08:24:42;72030.06;;;-149.71;27.24
53916;BME280;39827;49.652;18.770;2023-06-01T08:29:46;72032.09;;;-149.71;27.47
53916;BME280;39827;49.652;18.770;2023-06-01T08:32:12;71999.97;;;-149.71;26.39
53916;BME280;39827;49.652;18.770;2023-06-01T08:34:37;72008.00;;;-149.71;26.65
53916;BME280;39827;49.652;18.770;2023-06-01T08:37:03;71999.97;;;-149.71;25.72
53916;BME280;39827;49.652;18.770;2023-06-01T08:39:29;71969.84;;;-149.71;26.16
53916;BME280;39827;49.652;18.770;2023-06-01T08:44:38;71925.66;;;-149.71;26.75
53916;BME280;39827;49.652;18.770;2023-06-01T08:47:04;71905.59;;;-149.71;26.20
53916;BME280;39827;49.652;18.770;2023-06-01T08:49:31;71869.44;;;-149.71;26.00
53916;BME280;39827;49.652;18.770;2023-06-01T08:52:00;71939.72;;;-149.71;26.52
53916;BME280;39827;49.652;18.770;2023-06-01T08:54:27;71935.69;;;-149.71;26.87
53916;BME280;39827;49.652;18.770;2023-06-01T08:56:54;71905.59;;;-149.71;25.78
53916;BME280;39827;49.652;18.770;2023-06-01T08:59:20;71881.50;;;-149.71;26.06
53916;BME280;39827;49.652;18.770;2023-06-01T09:01:46;71907.59;;;-149.71;26.43
53916;BME280;39827;49.652;18.770;2023-06-01T09:04:12;71847.34;;;-149.71;25.21
53916;BME280;39827;49.652;18.770;2023-06-01T09:06:41;71847.34;;;-149.71;25.84
53916;BME280;39827;49.652;18.770;2023-06-01T09:09:06;71837.31;;;-149.71;25.54
53916;BME280;39827;49.652;18.770;2023-06-01T09:11:36;71811.22;;;-149.71;25.45
53916;BME280;39827;49.652;18.770;2023-06-01T09:14:02;71815.22;;;-149.71;25.90
53916;BME280;39827;49.652;18.770;2023-06-01T09:16:35;71823.25;;;-149.71;25.43
53916;BME280;39827;49.652;18.770;2023-06-01T09:19:02;71811.22;;;-149.71;25.57
53916;BME280;39827;49.652;18.770;2023-06-01T09:21:27;71805.19;;;-149.71;26.14
53916;BME280;39827;49.652;18.770;2023-06-01T09:23:53;71811.22;;;-149.71;26.37
53916;BME280;39827;49.652;18.770;2023-06-01T09:26:26;71805.19;;;-149.71;25.28
53916;BME280;39827;49.652;18.770;2023-06-01T09:31:44;71789.13;;;-149.71;25.19
53916;BME280;39827;49.652;18.770;2023-06-01T09:34:18;71805.19;;;-149.71;24.76
53916;BME280;39827;49.652;18.770;2023-06-01T09:36:49;71763.03;;;-149.71;25.89
53916;BME280;39827;49.652;18.770;2023-06-01T09:39:17;71746.97;;;-149.71;24.96
53916;BME280;39827;49.652;18.770;2023-06-01T09:42:03;71742.94;;;-149.71;26.06
53916;BME280;39827;49.652;18.770;2023-06-01T09:44:42;71722.88;;;-149.71;25.44
53916;BME280;39827;49.652;18.770;2023-06-01T09:47:09;71736.91;;;-149.71;25.37
53916;BME280;39827;49.652;18.770;2023-06-01T09:54:31;71712.81;;;-149.71;25.06
53916;BME280;39827;49.652;18.770;2023-06-01T09:56:58;71692.75;;;-149.71;24.74
53916;BME280;39827;49.652;18.770;2023-06-01T09:59:25;71732.91;;;-149.71;25.40
53916;BME280;39827;49.652;18.770;2023-06-01T10:01:52;71720.84;;;-149.71;25.64
53916;BME280;39827;49.652;18.770;2023-06-01T10:04:23;71696.75;;;-149.71;24.92
53916;BME280;39827;49.652;18.770;2023-06-01T10:06:50;71755.00;;;-149.71;25.29
53916;BME280;39827;49.652;18.770;2023-06-01T10:09:17;71720.84;;;-149.71;25.34
53916;BME280;39827;49.652;18.770;2023-06-01T10:11:49;71696.75;;;-149.71;25.20
53916;BME280;39827;49.652;18.770;2023-06-01T10:14:18;71730.91;;;-149.71;25.64
53916;BME280;39827;49.652;18.770;2023-06-01T10:16:43;71694.75;;;-149.71;25.43
53916;BME280;39827;49.652;18.770;2023-06-01T10:19:10;71670.66;;;-149.71;25.27
53916;BME280;39827;49.652;18.770;2023-06-01T10:21:37;71664.63;;;-149.71;25.35
53916;BME280;39827;49.652;18.770;2023-06-01T10:24:06;71672.66;;;-149.71;25.31
53916;BME280;39827;49.652;18.770;2023-06-01T10:29:23;71650.59;;;-149.71;25.64
53916;BME280;39827;49.652;18.770;2023-06-01T10:31:49;71668.66;;;-149.71;25.56
53916;BME280;39827;49.652;18.770;2023-06-01T10:34:36;71668.66;;;-149.71;25.98
53916;BME280;39827;49.652;18.770;2023-06-01T10:39:31;71706.81;;;-149.71;26.34
53916;BME280;39827;49.652;18.770;2023-06-01T10:42:00;71777.06;;;-149.71;26.79
53916;BME280;39827;49.652;18.770;2023-06-01T10:52:34;71650.59;;;-149.71;25.74
53916;BME280;39827;49.652;18.770;2023-06-01T10:57:39;71730.91;;;-149.71;26.40
53916;BME280;39827;49.652;18.770;2023-06-01T11:02:57;71714.84;;;-149.71;25.82
53916;BME280;39827;49.652;18.770;2023-06-01T11:05:48;71799.16;;;-149.71;25.98
53916;BME280;39827;49.652;18.770;2023-06-01T11:21:12;71744.94;;;-149.71;25.80
53916;BME280;39827;49.652;18.770;2023-06-01T11:23:41;71759.00;;;-149.71;26.55
53916;BME280;39827;49.652;18.770;2023-06-01T11:26:07;71746.97;;;-149.71;26.36
53916;BME280;39827;49.652;18.770;2023-06-01T11:28:34;71771.06;;;-149.71;28.20
53916;BME280;39827;49.652;18.770;2023-06-01T11:31:01;71823.25;;;-149.71;27.66
53916;BME280;39827;49.652;18.770;2023-06-01T11:33:31;71789.13;;;-149.71;27.12
53916;BME280;39827;49.652;18.770;2023-06-01T11:36:00;71765.03;;;-149.71;26.56
53916;BME280;39827;49.652;18.770;2023-06-01T11:38:39;71827.28;;;-149.71;26.89
53916;BME280;39827;49.652;18.770;2023-06-01T11:41:05;71817.22;;;-149.71;26.91
53916;BME280;39827;49.652;18.770;2023-06-01T11:43:32;71811.22;;;-149.71;27.67
53916;BME280;39827;49.652;18.770;2023-06-01T11:46:04;71813.22;;;-149.71;27.41
53916;BME280;39827;49.652;18.770;2023-06-01T11:48:31;71801.16;;;-149.71;27.46
53916;BME280;39827;49.652;18.770;2023-06-01T11:50:57;71773.06;;;-149.71;27.31
53916;BME280;39827;49.652;18.770;2023-06-01T11:53:25;71785.09;;;-149.71;28.20
53916;BME280;39827;49.652;18.770;2023-06-01T11:55:54;71857.41;;;-149.71;28.30
53916;BME280;39827;49.652;18.770;2023-06-01T11:58:27;71825.25;;;-149.71;28.23
53916;BME280;39827;49.652;18.770;2023-06-01T12:00:53;71823.25;;;-149.71;27.94
53916;BME280;39827;49.652;18.770;2023-06-01T12:03:19;71811.22;;;-149.71;27.62
53916;BME280;39827;49.652;18.770;2023-06-01T12:05:45;71825.25;;;-149.71;28.04
53916;BME280;39827;49.652;18.770;2023-06-01T12:08:17;71871.44;;;-149.71;28.54
53916;BME280;39827;49.652;18.770;2023-06-01T12:10:44;71909.59;;;-149.71;27.81
53916;BME280;39827;49.652;18.770;2023-06-01T12:13:12;71905.59;;;-149.71;28.70
53916;BME280;39827;49.652;18.770;2023-06-01T12:15:37;71867.44;;;-149.71;29.61
53916;BME280;39827;49.652;18.770;2023-06-01T12:18:04;71897.56;;;-149.71;28.91
53916;BME280;39827;49.652;18.770;2023-06-01T12:20:35;71849.38;;;-149.71;30.20
53916;BME280;39827;49.652;18.770;2023-06-01T12:23:02;71895.53;;;-149.71;29.32
53916;BME280;39827;49.652;18.770;2023-06-01T12:26:03;71877.47;;;-149.71;28.96
53916;BME280;39827;49.652;18.770;2023-06-01T12:28:29;71873.47;;;-149.71;30.34
53916;BME280;39827;49.652;18.770;2023-06-01T12:31:13;71907.59;;;-149.71;29.31
53916;BME280;39827;49.652;18.770;2023-06-01T12:33:40;71901.56;;;-149.71;29.16
53916;BME280;39827;49.652;18.770;2023-06-01T12:36:07;71881.50;;;-149.71;29.43
53916;BME280;39827;49.652;18.770;2023-06-01T12:41:08;71887.50;;;-149.71;27.55
53916;BME280;39827;49.652;18.770;2023-06-01T12:43:35;71889.53;;;-149.71;28.91
53916;BME280;39827;49.652;18.770;2023-06-01T12:46:01;71893.53;;;-149.71;29.46
53916;BME280;39827;49.652;18.770;2023-06-01T12:48:33;71877.47;;;-149.71;28.18
53916;BME280;39827;49.652;18.770;2023-06-01T12:50:59;71887.50;;;-149.71;28.66
53916;BME280;39827;49.652;18.770;2023-06-01T12:53:25;71881.50;;;-149.71;29.07
53916;BME280;39827;49.652;18.770;2023-06-01T12:55:50;71861.41;;;-149.71;27.74
53916;BME280;39827;49.652;18.770;2023-06-01T12:58:16;71893.53;;;-149.71;28.46
53916;BME280;39827;49.652;18.770;2023-06-01T13:00:41;71921.66;;;-149.71;28.65
53916;BME280;39827;49.652;18.770;2023-06-01T13:03:08;71905.59;;;-149.71;29.31
53916;BME280;39827;49.652;18.770;2023-06-01T13:05:33;71863.41;;;-149.71;27.66
53916;BME280;39827;49.652;18.770;2023-06-01T13:07:58;71861.41;;;-149.71;27.96
53916;BME280;39827;49.652;18.770;2023-06-01T13:10:25;71857.41;;;-149.71;29.02
53916;BME280;39827;49.652;18.770;2023-06-01T13:12:52;71847.34;;;-149.71;28.22
53916;BME280;39827;49.652;18.770;2023-06-01T13:15:17;71857.41;;;-149.71;27.32
53916;BME280;39827;49.652;18.770;2023-06-01T13:17:43;71845.34;;;-149.71;27.60
53916;BME280;39827;49.652;18.770;2023-06-01T13:20:09;71861.41;;;-149.71;26.87
53916;BME280;39827;49.652;18.770;2023-06-01T13:22:37;71893.53;;;-149.71;27.43
53916;BME280;39827;49.652;18.770;2023-06-01T13:25:03;71869.44;;;-149.71;27.23
53916;BME280;39827;49.652;18.770;2023-06-01T13:27:30;71885.50;;;-149.71;27.90
53916;BME280;39827;49.652;18.770;2023-06-01T13:29:55;71871.44;;;-149.71;27.01
53916;BME280;39827;49.652;18.770;2023-06-01T13:32:21;71899.56;;;-149.71;27.29
53916;BME280;39827;49.652;18.770;2023-06-01T13:34:46;71901.56;;;-149.71;27.54
53916;BME280;39827;49.652;18.770;2023-06-01T13:37:12;71905.59;;;-149.71;26.99